createdAt,value
2023-05-17T00:00:43.236Z,94.67
2023-05-17T00:01:45.372Z,94.66
2023-05-17T00:02:47.420Z,94.59
2023-05-17T00:03:49.275Z,94.57
2023-05-17T00:04:51.381Z,94.96
2023-05-17T00:05:53.533Z,94.67
2023-05-17T00:06:55.376Z,94.81
2023-05-17T00:07:57.339Z,94.67
2023-05-17T00:08:59.286Z,94.74
2023-05-17T00:10:01.251Z,94.39
2023-05-17T00:11:03.205Z,94.11
2023-05-17T00:12:05.572Z,94.26
2023-05-17T00:13:07.507Z,94.40
2023-05-17T00:14:09.361Z,94.25
2023-05-17T00:15:11.373Z,94.67
2023-05-17T00:16:13.310Z,94.18
2023-05-17T00:17:16.200Z,94.29
2023-05-17T00:18:18.260Z,94.39
2023-05-17T00:19:21.070Z,94.35
2023-05-17T00:20:23.056Z,94.19
2023-05-17T00:21:24.977Z,94.44
2023-05-17T00:22:27.109Z,94.04
2023-05-17T00:23:29.044Z,94.31
2023-05-17T00:24:31.038Z,94.11
2023-05-17T00:25:32.983Z,94.13
2023-05-17T00:26:34.879Z,93.97
2023-05-17T00:27:36.847Z,94.51
2023-05-17T00:28:38.738Z,93.94
2023-05-17T00:29:40.585Z,94.07
2023-05-17T00:30:42.569Z,93.98
2023-05-17T00:31:44.608Z,94.30
2023-05-17T00:32:47.288Z,94.71
2023-05-17T00:33:49.299Z,94.68
2023-05-17T00:34:51.282Z,94.19
2023-05-17T00:35:53.299Z,94.43
2023-05-17T00:36:55.153Z,94.11
2023-05-17T00:37:57.117Z,94.08
2023-05-17T00:38:59.044Z,94.55
2023-05-17T00:40:01.033Z,94.76
2023-05-17T00:41:02.914Z,94.33
2023-05-17T00:42:05.662Z,94.51
2023-05-17T00:43:07.619Z,94.53
2023-05-17T00:44:09.508Z,94.12
2023-05-17T00:45:11.537Z,94.05
2023-05-17T00:46:13.477Z,94.09
2023-05-17T00:47:15.292Z,94.14
2023-05-17T00:48:17.367Z,94.19
2023-05-17T00:49:19.771Z,94.03
2023-05-17T00:50:21.699Z,93.90
2023-05-17T00:51:23.648Z,94.38
2023-05-17T00:52:25.684Z,94.10
2023-05-17T00:53:29.060Z,94.22
2023-05-17T00:54:31.700Z,94.14
2023-05-17T00:55:34.011Z,93.89
2023-05-17T00:56:36.310Z,94.23
2023-05-17T00:57:38.315Z,94.20
2023-05-17T00:58:41.301Z,93.92
2023-05-17T00:59:44.760Z,94.03
2023-05-17T01:00:47.292Z,93.80
2023-05-17T01:01:49.273Z,93.83
2023-05-17T01:02:51.322Z,93.79
2023-05-17T01:03:53.428Z,93.65
2023-05-17T01:04:55.816Z,94.10
2023-05-17T01:05:57.881Z,93.64
2023-05-17T01:06:59.823Z,94.12
2023-05-17T01:08:01.710Z,94.03
2023-05-17T01:09:04.450Z,94.39
2023-05-17T01:10:07.203Z,94.20
2023-05-17T01:11:27.946Z,94.32
2023-05-17T01:12:32.526Z,94.55
2023-05-17T01:13:46.569Z,94.36
2023-05-17T01:14:59.125Z,94.40
2023-05-17T01:16:10.255Z,94.31
2023-05-17T01:17:24.637Z,94.18
2023-05-17T01:18:40.889Z,93.81
2023-05-17T01:19:52.695Z,94.15
2023-05-17T01:20:59.696Z,93.57
2023-05-17T01:22:07.505Z,93.95
2023-05-17T01:23:35.410Z,93.82
2023-05-17T01:24:49.086Z,94.03
2023-05-17T01:26:00.010Z,93.66
2023-05-17T01:27:05.490Z,94.20
2023-05-17T01:28:08.569Z,93.93
2023-05-17T01:29:10.674Z,94.03
2023-05-17T01:30:13.930Z,94.28
2023-05-17T01:31:16.338Z,93.72
2023-05-17T01:32:18.475Z,94.33
2023-05-17T01:33:21.580Z,94.38
2023-05-17T01:34:30.062Z,94.44
2023-05-17T01:35:31.983Z,94.29
2023-05-17T01:36:33.938Z,94.45
2023-05-17T01:37:35.945Z,94.68
2023-05-17T01:38:37.897Z,94.75
2023-05-17T01:39:40.688Z,94.67
2023-05-17T01:40:53.061Z,94.63
2023-05-17T01:42:03.091Z,94.23
2023-05-17T01:43:15.184Z,94.55
2023-05-17T01:44:22.919Z,94.72
2023-05-17T01:45:33.473Z,94.24
2023-05-17T01:46:42.447Z,94.53
2023-05-17T01:47:53.881Z,94.44
2023-05-17T01:49:14.733Z,94.29
2023-05-17T01:50:18.418Z,94.71
2023-05-17T01:51:22.121Z,94.53
2023-05-17T01:52:23.920Z,94.40
2023-05-17T01:53:46.826Z,94.55
2023-05-17T01:54:53.048Z,94.17
2023-05-17T01:55:57.125Z,94.36
2023-05-17T01:56:59.577Z,93.94
2023-05-17T01:58:04.238Z,93.89
2023-05-17T01:59:07.174Z,94.22
2023-05-17T02:00:09.936Z,94.15
2023-05-17T02:01:13.558Z,94.16
2023-05-17T02:02:16.004Z,93.88
2023-05-17T02:03:18.789Z,94.10
2023-05-17T02:04:21.004Z,94.25
2023-05-17T02:05:23.017Z,93.84
2023-05-17T02:06:24.980Z,93.99
2023-05-17T02:07:26.911Z,93.77
2023-05-17T02:08:28.821Z,93.64
2023-05-17T02:09:31.267Z,93.61
2023-05-17T02:10:33.176Z,93.56
2023-05-17T02:11:36.409Z,93.80
2023-05-17T02:12:38.325Z,93.67
2023-05-17T02:13:40.763Z,93.61
2023-05-17T02:14:42.651Z,93.28
2023-05-17T02:15:44.572Z,93.45
2023-05-17T02:16:46.498Z,93.36
2023-05-17T02:17:48.593Z,93.29
2023-05-17T02:18:51.288Z,93.05
2023-05-17T02:19:53.183Z,93.37
2023-05-17T02:20:55.154Z,93.03
2023-05-17T02:21:57.061Z,93.02
2023-05-17T02:22:58.994Z,93.33
2023-05-17T02:24:00.945Z,92.87
2023-05-17T02:25:02.917Z,92.87
2023-05-17T02:26:04.842Z,93.22
2023-05-17T02:27:06.754Z,93.00
2023-05-17T02:28:08.594Z,93.36
2023-05-17T02:29:11.781Z,93.09
2023-05-17T02:30:16.408Z,92.75
2023-05-17T02:31:19.962Z,93.30
2023-05-17T02:32:21.903Z,93.54
2023-05-17T02:33:24.106Z,93.19
2023-05-17T02:34:26.583Z,93.59
2023-05-17T02:35:28.904Z,93.14
2023-05-17T02:36:31.148Z,92.73
2023-05-17T02:37:33.081Z,93.11
2023-05-17T02:38:35.079Z,93.12
2023-05-17T02:39:37.011Z,93.00
2023-05-17T02:40:41.376Z,92.73
2023-05-17T02:41:45.413Z,92.93
2023-05-17T02:42:47.426Z,93.07
2023-05-17T02:43:49.787Z,92.68
2023-05-17T02:44:54.471Z,92.74
2023-05-17T02:45:56.322Z,92.89
2023-05-17T02:46:58.255Z,92.45
2023-05-17T02:48:00.158Z,92.94
2023-05-17T02:49:02.144Z,93.14
2023-05-17T02:50:04.234Z,92.82
2023-05-17T02:51:06.119Z,92.80
2023-05-17T02:52:08.152Z,93.18
2023-05-17T02:53:10.024Z,93.06
2023-05-17T02:54:11.970Z,93.40
2023-05-17T02:55:13.902Z,93.26
2023-05-17T02:56:15.877Z,93.65
2023-05-17T02:57:17.774Z,93.43
2023-05-17T02:58:19.653Z,93.46
2023-05-17T02:59:21.724Z,93.38
2023-05-17T03:00:23.661Z,93.28
2023-05-17T03:01:25.521Z,93.05
2023-05-17T03:02:27.480Z,93.14
2023-05-17T03:03:29.569Z,93.30
2023-05-17T03:04:32.904Z,93.34
2023-05-17T03:05:34.937Z,92.99
2023-05-17T03:06:38.080Z,93.30
2023-05-17T03:07:39.999Z,93.35
2023-05-17T03:08:41.940Z,93.36
2023-05-17T03:09:43.840Z,93.44
2023-05-17T03:10:45.844Z,93.13
2023-05-17T03:11:47.763Z,93.37
2023-05-17T03:12:49.653Z,92.91
2023-05-17T03:13:52.099Z,93.10
2023-05-17T03:14:54.018Z,93.42
2023-05-17T03:15:56.111Z,93.51
2023-05-17T03:16:58.027Z,93.44
2023-05-17T03:18:00.330Z,92.94
2023-05-17T03:19:02.525Z,93.23
2023-05-17T03:20:06.792Z,92.68
2023-05-17T03:21:08.764Z,92.75
2023-05-17T03:22:11.317Z,92.68
2023-05-17T03:23:13.142Z,92.52
2023-05-17T03:24:15.069Z,92.61
2023-05-17T03:25:16.944Z,92.42
2023-05-17T03:26:20.344Z,92.64
2023-05-17T03:27:22.269Z,92.43
2023-05-17T03:28:24.176Z,92.37
2023-05-17T03:29:26.014Z,92.19
2023-05-17T03:30:28.039Z,92.30
2023-05-17T03:31:30.011Z,92.29
2023-05-17T03:32:31.991Z,92.52
2023-05-17T03:33:34.011Z,92.49
2023-05-17T03:34:36.013Z,92.49
2023-05-17T03:35:38.029Z,92.37
2023-05-17T03:36:41.161Z,92.39
2023-05-17T03:37:45.392Z,92.37
2023-05-17T03:38:47.302Z,92.14
2023-05-17T03:39:49.194Z,92.27
2023-05-17T03:40:52.033Z,92.30
2023-05-17T03:41:53.986Z,92.41
2023-05-17T03:42:55.891Z,92.57
2023-05-17T03:43:58.013Z,92.64
2023-05-17T03:45:00.440Z,92.76
2023-05-17T03:46:02.380Z,92.50
2023-05-17T03:47:04.344Z,92.32
2023-05-17T03:48:06.463Z,92.73
2023-05-17T03:49:08.879Z,93.00
2023-05-17T03:50:11.343Z,92.96
2023-05-17T03:51:13.278Z,93.04
2023-05-17T03:52:15.190Z,92.64
2023-05-17T03:53:17.152Z,92.48
2023-05-17T03:54:19.038Z,92.50
2023-05-17T03:55:21.016Z,92.60
2023-05-17T03:56:22.864Z,92.59
2023-05-17T03:57:24.947Z,92.55
2023-05-17T03:58:26.848Z,92.39
2023-05-17T03:59:28.712Z,92.36
2023-05-17T04:00:30.639Z,92.49
2023-05-17T04:01:32.480Z,92.49
2023-05-17T04:02:34.408Z,92.63
2023-05-17T04:03:38.038Z,91.95
2023-05-17T04:04:40.021Z,92.03
2023-05-17T04:05:42.150Z,92.00
2023-05-17T04:06:44.097Z,92.17
2023-05-17T04:07:46.500Z,92.23
2023-05-17T04:08:48.380Z,92.09
2023-05-17T04:09:50.342Z,92.29
2023-05-17T04:10:52.315Z,92.49
2023-05-17T04:11:54.246Z,92.49
2023-05-17T04:12:56.168Z,92.15
2023-05-17T04:13:58.054Z,92.47
2023-05-17T04:14:59.976Z,92.15
2023-05-17T04:16:01.791Z,92.25
2023-05-17T04:17:03.701Z,92.19
2023-05-17T04:18:05.897Z,92.30
2023-05-17T04:19:08.001Z,92.40
2023-05-17T04:20:10.369Z,92.37
2023-05-17T04:21:12.294Z,92.21
2023-05-17T04:22:14.306Z,92.17
2023-05-17T04:23:16.472Z,92.38
2023-05-17T04:24:18.501Z,92.31
2023-05-17T04:25:20.413Z,92.59
2023-05-17T04:26:22.348Z,92.42
2023-05-17T04:27:24.236Z,92.31
2023-05-17T04:28:26.482Z,92.40
2023-05-17T04:29:28.399Z,92.47
2023-05-17T04:30:30.285Z,92.39
2023-05-17T04:31:32.446Z,92.26
2023-05-17T04:32:34.535Z,92.09
2023-05-17T04:33:37.419Z,92.01
2023-05-17T04:34:39.446Z,91.88
2023-05-17T04:35:42.804Z,92.15
2023-05-17T04:36:44.702Z,92.35
2023-05-17T04:37:46.578Z,92.06
2023-05-17T04:38:48.448Z,91.96
2023-05-17T04:39:50.476Z,92.18
2023-05-17T04:40:52.571Z,92.37
2023-05-17T04:41:54.504Z,92.46
2023-05-17T04:42:56.443Z,92.30
2023-05-17T04:43:58.367Z,92.12
2023-05-17T04:45:00.353Z,92.20
2023-05-17T04:46:02.264Z,92.31
2023-05-17T04:47:04.303Z,92.31
2023-05-17T04:48:06.369Z,92.33
2023-05-17T04:49:08.891Z,92.51
2023-05-17T04:50:11.062Z,92.78
2023-05-17T04:51:12.942Z,92.48
2023-05-17T04:52:14.832Z,92.45
2023-05-17T04:53:16.881Z,92.61
2023-05-17T04:54:18.784Z,92.67
2023-05-17T04:55:20.865Z,92.58
2023-05-17T04:56:23.093Z,92.49
2023-05-17T04:57:24.943Z,92.39
2023-05-17T04:58:26.926Z,92.63
2023-05-17T04:59:28.836Z,92.80
2023-05-17T05:00:30.851Z,92.58
2023-05-17T05:01:33.086Z,92.61
2023-05-17T05:02:34.989Z,92.47
2023-05-17T05:03:39.153Z,92.44
2023-05-17T05:04:41.294Z,92.62
2023-05-17T05:05:43.249Z,92.61
2023-05-17T05:06:46.858Z,92.27
2023-05-17T05:07:48.746Z,92.31
2023-05-17T05:08:50.667Z,92.41
2023-05-17T05:09:52.632Z,92.42
2023-05-17T05:10:54.629Z,92.43
2023-05-17T05:11:56.511Z,92.70
2023-05-17T05:12:58.614Z,92.78
2023-05-17T05:14:00.496Z,92.81
2023-05-17T05:15:02.454Z,92.68
2023-05-17T05:16:04.669Z,92.66
2023-05-17T05:17:06.603Z,92.87
2023-05-17T05:18:08.670Z,92.64
2023-05-17T05:19:10.939Z,92.69
2023-05-17T05:20:13.314Z,92.53
2023-05-17T05:21:15.201Z,92.65
2023-05-17T05:22:17.233Z,92.48
2023-05-17T05:23:21.409Z,92.55
2023-05-17T05:24:23.277Z,92.61
2023-05-17T05:25:25.160Z,92.69
2023-05-17T05:26:27.126Z,92.54
2023-05-17T05:27:29.199Z,92.65
2023-05-17T05:28:31.419Z,92.50
2023-05-17T05:29:33.327Z,92.66
2023-05-17T05:30:35.246Z,92.34
2023-05-17T05:31:37.294Z,92.23
2023-05-17T05:32:39.391Z,92.22
2023-05-17T05:33:41.610Z,92.16
2023-05-17T05:34:44.219Z,92.18
2023-05-17T05:35:46.147Z,92.30
2023-05-17T05:36:48.068Z,92.30
2023-05-17T05:37:50.142Z,92.36
2023-05-17T05:38:54.828Z,92.35
2023-05-17T05:39:56.731Z,92.14
2023-05-17T05:40:58.595Z,92.00
2023-05-17T05:42:00.457Z,92.06
2023-05-17T05:43:02.395Z,92.30
2023-05-17T05:44:04.425Z,92.31
2023-05-17T05:45:06.634Z,91.99
2023-05-17T05:46:08.662Z,92.15
2023-05-17T05:47:10.530Z,92.21
2023-05-17T05:48:13.306Z,91.72
2023-05-17T05:49:15.405Z,91.73
2023-05-17T05:50:17.342Z,91.62
2023-05-17T05:51:21.362Z,91.64
2023-05-17T05:52:24.565Z,91.81
2023-05-17T05:53:26.625Z,91.83
2023-05-17T05:54:28.488Z,92.27
2023-05-17T05:55:30.342Z,92.29
2023-05-17T05:56:32.227Z,92.27
2023-05-17T05:57:34.197Z,92.02
2023-05-17T05:58:36.199Z,92.20
2023-05-17T05:59:38.111Z,92.17
2023-05-17T06:00:40.001Z,92.14
2023-05-17T06:01:42.054Z,92.14
2023-05-17T06:02:44.018Z,92.24
2023-05-17T06:03:46.132Z,92.12
2023-05-17T06:04:48.498Z,91.93
2023-05-17T06:05:50.621Z,92.07
2023-05-17T06:06:52.976Z,92.14
2023-05-17T06:07:55.831Z,91.85
2023-05-17T06:08:59.677Z,92.02
2023-05-17T06:10:01.765Z,91.85
2023-05-17T06:11:03.599Z,91.96
2023-05-17T06:12:05.808Z,92.14
2023-05-17T06:13:07.827Z,91.85
2023-05-17T06:14:09.895Z,92.00
2023-05-17T06:15:12.205Z,92.28
2023-05-17T06:16:14.094Z,92.24
2023-05-17T06:17:15.990Z,92.15
2023-05-17T06:18:17.987Z,92.33
2023-05-17T06:19:20.949Z,92.05
2023-05-17T06:20:22.938Z,91.92
2023-05-17T06:21:25.823Z,91.97
2023-05-17T06:22:27.820Z,92.12
2023-05-17T06:23:29.869Z,91.98
2023-05-17T06:25:34.885Z,91.75
2023-05-17T06:26:36.778Z,91.75
2023-05-17T06:27:38.754Z,91.97
2023-05-17T06:28:40.629Z,91.93
2023-05-17T06:29:42.534Z,91.79
2023-05-17T06:30:45.158Z,91.87
2023-05-17T06:31:47.202Z,91.87
2023-05-17T06:32:49.142Z,91.92
2023-05-17T06:33:51.174Z,92.40
2023-05-17T06:34:53.174Z,92.19
2023-05-17T06:35:57.541Z,92.27
2023-05-17T06:37:00.296Z,92.53
2023-05-17T06:38:02.337Z,92.61
2023-05-17T06:39:04.278Z,92.55
2023-05-17T06:40:15.966Z,92.16
2023-05-17T06:41:19.111Z,92.09
2023-05-17T06:42:20.980Z,92.17
2023-05-17T06:43:22.909Z,92.17
2023-05-17T06:44:24.901Z,92.21
2023-05-17T06:45:27.812Z,92.15
2023-05-17T06:46:29.762Z,92.16
2023-05-17T06:47:31.618Z,92.09
2023-05-17T06:48:33.587Z,91.44
2023-05-17T06:49:35.948Z,91.55
2023-05-17T06:50:37.991Z,91.03
2023-05-17T06:51:39.959Z,91.13
2023-05-17T06:52:41.943Z,91.08
2023-05-17T06:53:43.761Z,90.90
2023-05-17T06:54:45.651Z,90.63
2023-05-17T06:55:47.654Z,90.74
2023-05-17T06:56:49.677Z,90.68
2023-05-17T06:57:51.574Z,91.12
2023-05-17T06:58:53.466Z,91.16
2023-05-17T06:59:55.330Z,91.41
2023-05-17T07:00:57.866Z,91.24
2023-05-17T07:02:00.511Z,91.26
2023-05-17T07:03:02.543Z,91.35
2023-05-17T07:04:04.665Z,91.33
2023-05-17T07:05:07.220Z,91.09
2023-05-17T07:06:09.158Z,91.42
2023-05-17T07:07:12.277Z,91.30
2023-05-17T07:08:15.490Z,91.23
2023-05-17T07:09:19.911Z,91.31
2023-05-17T07:10:21.766Z,91.66
2023-05-17T07:11:23.605Z,91.66
2023-05-17T07:12:25.553Z,91.96
2023-05-17T07:13:27.406Z,91.97
2023-05-17T07:14:29.806Z,91.57
2023-05-17T07:15:31.884Z,91.49
2023-05-17T07:16:34.039Z,91.50
2023-05-17T07:17:36.469Z,91.77
2023-05-17T07:18:38.558Z,91.28
2023-05-17T07:19:40.715Z,91.43
2023-05-17T07:20:42.683Z,91.09
2023-05-17T07:21:44.777Z,90.93
2023-05-17T07:22:46.876Z,90.61
2023-05-17T07:23:48.715Z,90.76
2023-05-17T07:24:51.298Z,91.10
2023-05-17T07:25:53.247Z,91.06
2023-05-17T07:26:55.177Z,91.08
2023-05-17T07:27:57.079Z,90.95
2023-05-17T07:28:59.052Z,91.09
2023-05-17T07:30:04.576Z,90.89
2023-05-17T07:31:06.728Z,90.76
2023-05-17T07:32:09.900Z,90.47
2023-05-17T07:33:11.859Z,90.15
2023-05-17T07:34:14.308Z,90.47
2023-05-17T07:35:16.610Z,90.14
2023-05-17T07:36:21.384Z,90.13
2023-05-17T07:37:24.007Z,90.18
2023-05-17T07:38:26.397Z,90.37
2023-05-17T07:39:28.556Z,90.25
2023-05-17T07:40:30.467Z,90.55
2023-05-17T07:41:34.199Z,90.43
2023-05-17T07:42:38.847Z,90.58
2023-05-17T07:43:40.787Z,90.84
2023-05-17T07:44:42.704Z,90.38
2023-05-17T07:45:45.249Z,89.70
2023-05-17T07:46:47.248Z,89.79
2023-05-17T07:47:49.193Z,89.79
2023-05-17T07:48:51.319Z,89.58
2023-05-17T07:49:53.634Z,89.36
2023-05-17T07:50:57.862Z,89.31
2023-05-17T07:51:59.653Z,89.65
2023-05-17T07:53:01.511Z,89.98
2023-05-17T07:54:03.839Z,90.21
2023-05-17T07:55:06.191Z,90.16
2023-05-17T07:56:08.355Z,90.32
2023-05-17T07:57:10.340Z,89.92
2023-05-17T07:58:12.314Z,89.43
2023-05-17T07:59:14.208Z,89.26
2023-05-17T08:00:19.670Z,89.33
2023-05-17T08:01:21.561Z,88.93
2023-05-17T08:02:25.137Z,89.08
2023-05-17T08:03:28.667Z,88.37
2023-05-17T08:04:30.577Z,88.99
2023-05-17T08:05:32.831Z,89.04
2023-05-17T08:06:34.981Z,88.94
2023-05-17T08:07:36.950Z,88.77
2023-05-17T08:08:38.819Z,88.64
2023-05-17T08:09:40.705Z,88.54
2023-05-17T08:10:43.656Z,88.36
2023-05-17T08:11:48.684Z,87.67
2023-05-17T08:12:50.854Z,87.98
2023-05-17T08:13:52.732Z,88.21
2023-05-17T08:14:54.717Z,88.05
2023-05-17T08:16:05.261Z,88.27
2023-05-17T08:17:14.373Z,87.87
2023-05-17T08:18:16.470Z,87.90
2023-05-17T08:19:18.904Z,88.15
2023-05-17T08:20:20.830Z,88.47
2023-05-17T08:21:23.320Z,89.01
2023-05-17T08:22:25.329Z,89.21
2023-05-17T08:23:27.412Z,88.74
2023-05-17T08:24:29.364Z,88.66
2023-05-17T08:25:31.673Z,88.67
2023-05-17T08:26:34.243Z,88.39
2023-05-17T08:27:37.480Z,88.54
2023-05-17T08:28:39.623Z,88.61
2023-05-17T08:29:41.522Z,88.68
2023-05-17T08:30:43.627Z,88.59
2023-05-17T08:31:46.076Z,88.99
2023-05-17T08:32:48.433Z,88.75
2023-05-17T08:33:50.559Z,88.99
2023-05-17T08:34:52.546Z,89.40
2023-05-17T08:35:55.729Z,89.14
2023-05-17T08:36:57.777Z,89.18
2023-05-17T08:37:59.827Z,89.11
2023-05-17T08:39:01.718Z,89.33
2023-05-17T08:40:05.235Z,90.16
2023-05-17T08:41:07.150Z,90.12
2023-05-17T08:42:09.110Z,90.27
2023-05-17T08:43:12.781Z,90.55
2023-05-17T08:44:15.284Z,90.46
2023-05-17T08:45:19.410Z,90.25
2023-05-17T08:46:22.163Z,89.80
2023-05-17T08:47:30.173Z,89.85
2023-05-17T08:48:32.855Z,89.49
2023-05-17T08:49:38.394Z,89.49
2023-05-17T08:50:40.428Z,89.60
2023-05-17T08:51:42.613Z,89.48
2023-05-17T08:52:45.780Z,89.57
2023-05-17T08:53:48.444Z,89.58
2023-05-17T08:54:50.353Z,89.68
2023-05-17T08:55:54.371Z,89.31
2023-05-17T08:56:59.293Z,89.18
2023-05-17T08:58:01.563Z,89.03
2023-05-17T08:59:06.012Z,89.19
2023-05-17T09:00:13.844Z,88.68
2023-05-17T09:01:17.243Z,88.68
2023-05-17T09:02:19.608Z,88.66
2023-05-17T09:03:23.003Z,88.67
2023-05-17T09:04:25.635Z,89.10
2023-05-17T09:05:28.611Z,88.93
2023-05-17T09:06:31.359Z,88.98
2023-05-17T09:07:33.337Z,89.18
2023-05-17T09:08:35.489Z,89.23
2023-05-17T09:09:37.582Z,88.98
2023-05-17T09:10:39.914Z,88.88
2023-05-17T09:11:41.962Z,88.90
2023-05-17T09:12:44.523Z,89.02
2023-05-17T09:13:46.633Z,88.63
2023-05-17T09:14:49.333Z,88.56
2023-05-17T09:15:51.266Z,88.77
2023-05-17T09:16:59.384Z,88.50
2023-05-17T09:18:01.455Z,89.30
2023-05-17T09:19:04.888Z,89.49
2023-05-17T09:20:08.123Z,89.27
2023-05-17T09:21:13.746Z,89.47
2023-05-17T09:22:18.300Z,89.49
2023-05-17T09:23:21.751Z,89.35
2023-05-17T09:24:31.448Z,89.34
2023-05-17T09:25:34.149Z,89.65
2023-05-17T09:26:40.556Z,89.40
2023-05-17T09:27:42.610Z,89.42
2023-05-17T09:28:44.975Z,89.25
2023-05-17T09:29:47.031Z,88.96
2023-05-17T09:30:50.247Z,88.80
2023-05-17T09:31:52.167Z,88.99
2023-05-17T09:32:54.306Z,88.97
2023-05-17T09:33:59.626Z,89.44
2023-05-17T09:35:02.968Z,89.28
2023-05-17T09:36:15.709Z,89.52
2023-05-17T09:37:18.734Z,89.19
2023-05-17T09:38:25.819Z,88.22
2023-05-17T09:39:27.736Z,88.31
2023-05-17T09:40:29.907Z,88.49
2023-05-17T09:41:41.716Z,88.73
2023-05-17T09:42:43.780Z,88.97
2023-05-17T09:43:46.373Z,89.10
2023-05-17T09:44:58.024Z,89.01
2023-05-17T09:45:59.968Z,89.11
2023-05-17T09:47:01.951Z,88.99
2023-05-17T09:48:17.687Z,88.80
2023-05-17T09:49:19.729Z,88.90
2023-05-17T09:50:25.356Z,88.98
2023-05-17T09:51:34.013Z,88.62
2023-05-17T09:52:35.988Z,89.09
2023-05-17T09:53:40.581Z,88.89
2023-05-17T09:54:42.595Z,89.17
2023-05-17T09:55:48.397Z,88.98
2023-05-17T09:56:59.970Z,89.24
2023-05-17T09:58:05.148Z,88.92
2023-05-17T09:59:14.820Z,88.54
2023-05-17T10:00:18.290Z,88.66
2023-05-17T10:01:21.110Z,88.36
2023-05-17T10:02:23.718Z,88.62
2023-05-17T10:03:27.495Z,88.40
2023-05-17T10:04:31.067Z,88.06
2023-05-17T10:05:33.460Z,88.28
2023-05-17T10:06:46.344Z,88.18
2023-05-17T10:07:52.034Z,88.07
2023-05-17T10:08:57.038Z,87.77
2023-05-17T10:09:59.776Z,88.00
2023-05-17T10:11:23.379Z,87.70
2023-05-17T10:12:29.742Z,87.77
2023-05-17T10:13:35.193Z,88.06
2023-05-17T10:14:37.377Z,88.06
2023-05-17T10:15:41.194Z,88.22
2023-05-17T10:16:43.990Z,88.00
2023-05-17T10:17:46.574Z,87.87
2023-05-17T10:18:49.950Z,87.27
2023-05-17T10:19:53.093Z,87.76
2023-05-17T10:20:56.277Z,88.01
2023-05-17T10:22:11.162Z,88.02
2023-05-17T10:23:21.203Z,88.10
2023-05-17T10:24:23.761Z,88.61
2023-05-17T10:25:26.113Z,88.29
2023-05-17T10:26:28.911Z,88.35
2023-05-17T10:27:31.145Z,87.86
2023-05-17T10:28:33.482Z,87.91
2023-05-17T10:29:36.725Z,88.10
2023-05-17T10:30:38.904Z,87.94
2023-05-17T10:31:41.699Z,87.82
2023-05-17T10:32:44.359Z,86.76
2023-05-17T10:33:47.395Z,85.81
2023-05-17T10:35:01.568Z,86.34
2023-05-17T10:36:08.674Z,86.41
2023-05-17T10:37:12.262Z,86.93
2023-05-17T10:38:14.132Z,86.59
2023-05-17T10:39:16.939Z,86.39
2023-05-17T10:40:20.567Z,87.16
2023-05-17T10:41:24.597Z,86.74
2023-05-17T10:42:27.161Z,88.08
2023-05-17T10:43:30.991Z,88.01
2023-05-17T10:44:34.316Z,88.02
2023-05-17T10:45:37.451Z,88.21
2023-05-17T10:46:39.525Z,87.20
2023-05-17T10:47:45.152Z,87.04
2023-05-17T10:48:54.080Z,86.53
2023-05-17T10:49:56.270Z,86.63
2023-05-17T10:51:05.554Z,87.06
2023-05-17T10:52:14.464Z,87.53
2023-05-17T10:53:16.597Z,87.95
2023-05-17T10:54:19.246Z,87.71
2023-05-17T10:55:22.738Z,87.56
2023-05-17T10:56:24.699Z,87.82
2023-05-17T10:57:49.140Z,86.76
2023-05-17T10:59:12.349Z,86.66
2023-05-17T11:00:20.151Z,86.22
2023-05-17T11:01:45.793Z,87.27
2023-05-17T11:02:49.349Z,88.38
2023-05-17T11:03:51.425Z,88.65
2023-05-17T11:04:54.241Z,88.21
2023-05-17T11:06:22.079Z,87.89
2023-05-17T11:07:27.887Z,87.83
2023-05-17T11:08:29.858Z,87.69
2023-05-17T11:09:32.704Z,87.41
2023-05-17T11:10:36.554Z,87.26
2023-05-17T11:11:58.344Z,87.03
2023-05-17T11:13:00.326Z,85.32
2023-05-17T11:14:04.213Z,85.84
2023-05-17T11:15:08.233Z,85.98
2023-05-17T11:16:10.590Z,84.62
2023-05-17T11:17:16.580Z,84.13
2023-05-17T11:18:29.598Z,85.24
2023-05-17T11:19:33.806Z,85.34
2023-05-17T11:20:37.499Z,85.37
2023-05-17T11:21:46.963Z,85.65
2023-05-17T11:22:59.211Z,85.91
2023-05-17T11:24:02.554Z,86.00
2023-05-17T11:25:08.861Z,86.59
2023-05-17T11:26:19.020Z,86.82
2023-05-17T11:27:21.564Z,86.13
2023-05-17T11:28:23.474Z,86.32
2023-05-17T11:29:29.263Z,86.50
2023-05-17T11:30:32.700Z,87.30
2023-05-17T11:31:36.423Z,87.66
2023-05-17T11:32:38.429Z,86.97
2023-05-17T11:33:44.968Z,86.47
2023-05-17T11:34:52.436Z,86.05
2023-05-17T11:35:55.522Z,86.14
2023-05-17T11:36:57.448Z,86.08
2023-05-17T11:38:14.988Z,84.92
2023-05-17T11:39:19.728Z,85.37
2023-05-17T11:40:25.518Z,85.81
2023-05-17T11:41:27.542Z,85.35
2023-05-17T11:42:29.814Z,85.60
2023-05-17T11:43:34.391Z,85.32
2023-05-17T11:44:37.211Z,84.97
2023-05-17T11:45:50.663Z,84.46
2023-05-17T11:47:01.982Z,83.91
2023-05-17T11:48:05.340Z,83.83
2023-05-17T11:49:08.091Z,83.72
2023-05-17T11:50:11.259Z,84.24
2023-05-17T11:51:15.654Z,82.79
2023-05-17T11:52:17.556Z,82.98
2023-05-17T11:53:19.900Z,83.74
2023-05-17T11:54:26.292Z,83.80
2023-05-17T11:55:28.394Z,83.73
2023-05-17T11:56:43.547Z,85.37
2023-05-17T11:57:46.222Z,86.25
2023-05-17T11:58:50.976Z,85.96
2023-05-17T11:59:58.863Z,85.72
2023-05-17T12:01:00.883Z,85.49
2023-05-17T12:02:03.393Z,85.80
2023-05-17T12:03:21.465Z,85.62
2023-05-17T12:04:27.900Z,84.89
2023-05-17T12:05:29.916Z,84.56
2023-05-17T12:06:33.109Z,84.58
2023-05-17T12:07:35.251Z,82.31
2023-05-17T12:08:38.740Z,81.89
2023-05-17T12:09:40.980Z,81.85
2023-05-17T12:10:47.602Z,82.15
2023-05-17T12:11:49.558Z,82.73
2023-05-17T12:12:51.500Z,83.11
2023-05-17T12:13:53.372Z,83.63
2023-05-17T12:14:55.306Z,83.95
2023-05-17T12:15:58.822Z,82.82
2023-05-17T12:17:02.784Z,82.54
2023-05-17T12:18:04.960Z,82.78
2023-05-17T12:19:17.668Z,82.42
2023-05-17T12:20:19.793Z,82.45
2023-05-17T12:21:21.772Z,82.81
2023-05-17T12:22:23.779Z,83.54
2023-05-17T12:23:29.789Z,83.97
2023-05-17T12:24:41.806Z,82.37
2023-05-17T12:25:43.825Z,82.79
2023-05-17T12:26:46.663Z,82.79
2023-05-17T12:27:48.722Z,82.77
2023-05-17T12:28:55.349Z,81.68
2023-05-17T12:29:57.252Z,81.81
2023-05-17T12:31:02.946Z,82.16
2023-05-17T12:32:06.466Z,83.60
2023-05-17T12:33:08.717Z,83.42
2023-05-17T12:34:13.093Z,83.43
2023-05-17T12:35:15.206Z,83.77
2023-05-17T12:36:18.222Z,84.23
2023-05-17T12:37:20.324Z,84.56
2023-05-17T12:38:22.434Z,84.61
2023-05-17T12:39:25.075Z,84.56
2023-05-17T12:40:27.492Z,84.29
2023-05-17T12:41:30.056Z,83.85
2023-05-17T12:42:34.869Z,83.85
2023-05-17T12:43:37.883Z,84.34
2023-05-17T12:44:39.753Z,84.33
2023-05-17T12:45:42.301Z,83.89
2023-05-17T12:46:45.261Z,83.61
2023-05-17T12:47:47.275Z,83.50
2023-05-17T12:48:50.420Z,83.55
2023-05-17T12:49:54.556Z,83.65
2023-05-17T12:50:56.513Z,84.46
2023-05-17T12:52:03.759Z,84.63
2023-05-17T12:53:09.484Z,84.03
2023-05-17T12:54:12.155Z,84.05
2023-05-17T12:55:14.251Z,82.94
2023-05-17T12:56:20.398Z,83.03
2023-05-17T12:57:22.368Z,83.30
2023-05-17T12:58:24.283Z,83.93
2023-05-17T12:59:26.416Z,83.71
2023-05-17T13:00:28.596Z,83.92
2023-05-17T13:01:37.591Z,84.16
2023-05-17T13:02:42.498Z,82.63
2023-05-17T13:03:50.746Z,82.69
2023-05-17T13:04:52.749Z,82.37
2023-05-17T13:05:58.625Z,83.15
2023-05-17T13:07:01.736Z,81.97
2023-05-17T13:08:22.097Z,82.59
2023-05-17T13:09:25.378Z,82.86
2023-05-17T13:10:28.664Z,83.48
2023-05-17T13:11:32.066Z,82.30
2023-05-17T13:12:34.013Z,82.90
2023-05-17T13:13:36.207Z,82.00
2023-05-17T13:14:39.339Z,82.76
2023-05-17T13:15:41.333Z,83.28
2023-05-17T13:16:43.368Z,83.65
2023-05-17T13:17:50.357Z,84.03
2023-05-17T13:18:52.873Z,84.01
2023-05-17T13:19:58.169Z,84.35
2023-05-17T13:21:00.741Z,84.76
2023-05-17T13:22:03.450Z,84.82
2023-05-17T13:23:07.355Z,85.10
2023-05-17T13:24:10.195Z,84.77
2023-05-17T13:25:14.398Z,84.84
2023-05-17T13:26:18.342Z,85.43
2023-05-17T13:27:20.490Z,85.56
2023-05-17T13:28:22.490Z,84.12
2023-05-17T13:29:38.214Z,84.66
2023-05-17T13:30:46.347Z,84.42
2023-05-17T13:31:48.377Z,85.01
2023-05-17T13:32:51.015Z,85.12
2023-05-17T13:33:53.180Z,84.22
2023-05-17T13:34:55.348Z,84.25
2023-05-17T13:35:57.481Z,84.78
2023-05-17T13:36:59.385Z,85.20
2023-05-17T13:38:01.412Z,84.68
2023-05-17T13:39:03.349Z,84.68